EGDR

RNAS Culdrose Airport

Helston, United Kingdom
TAF EGDR 261042Z 2612/2621 24012KT 9999 FEW014 SCT040 PROB40 TEMPO 2612/2617 24015G25KT 9999 -SHRA SCT020 BECMG 2617/2621 19010KT SCT024 BKN080 PROB30 TEMPO 2620/2621 8000 -RA SCT012 BKN024
Issued Valid From Valid To
Apr-26 @ 10:42 UTC
(3 hours ago)
Apr-26 @ 12:00 UTC
(an hour ago)
Apr-26 @ 21:00 UTC
(in 8 hours)
Apr-26 @ 12:00 to Apr-26 @ 17:00
TAF EGDR 261042Z 2612/2621 24012KT 9999 FEW014 SCT040
Wind Visibility Clouds
240° at 12 knots 10,000+ meters
  • Few at 1,400' AGL
  • Scattered at 4,000' AGL
Temporary  (Probability 40%) Apr-26 @ 12:00 to Apr-26 @ 17:00
PROB40 TEMPO 2612/2617 24015G25KT 9999 -SHRA SCT020
Wind Visibility Clouds Conditions
240° at 15 knots
 Gusting to 25 knots
10,000+ meters
  • Scattered at 2,000' AGL
  • Light Rain
Becoming Apr-26 @ 17:00 to Apr-26 @ 21:00
BECMG 2617/2621 19010KT SCT024 BKN080
Wind Visibility Clouds
190° at 10 knots 10,000+ meters
  • Scattered at 2,400' AGL
  • Broken at 8,000' AGL
Temporary  (Probability 30%) Apr-26 @ 20:00 to Apr-26 @ 21:00
PROB30 TEMPO 2620/2621 8000 -RA SCT012 BKN024
Visibility Clouds Conditions
7,998 meters
  • Scattered at 1,200' AGL
  • Broken at 2,400' AGL
  • Light Rain
TAF EGDR 261042Z 2612/2621 24012KT 9999 FEW014 SCT040 PROB40 TEMPO 2612/2617 24015G25KT 9999 -SHRA SCT020 BECMG 2617/2621 19010KT SCT024 BKN080 PROB30 TEMPO 2620/2621 8000 -RA SCT012 BKN024
Issued Apr-26 @ 10:42 UTC
(3 hours ago)
Valid From Apr-26 @ 12:00 UTC
(an hour ago)
Valid To Apr-26 @ 21:00 UTC
(in 8 hours)
Apr-26 @ 12:00 - Apr-26 @ 17:00
Wind Visibility
240° at 12 knots 10,000+ meters
Clouds
  • Few at 1,400' AGL
  • Scattered at 4,000' AGL
Probability 40% Temporary Apr-26 @ 12:00 - Apr-26 @ 17:00
Wind Visibility
240° at 15 knots
 Gusting to 25 knots
10,000+ meters
Clouds
  • Scattered at 2,000' AGL
Conditions
  • Light Rain
Becoming Apr-26 @ 17:00 - Apr-26 @ 21:00
Wind Visibility
190° at 10 knots 10,000+ meters
Clouds
  • Scattered at 2,400' AGL
  • Broken at 8,000' AGL
Probability 30% Temporary Apr-26 @ 20:00 - Apr-26 @ 21:00
Clouds
  • Scattered at 1,200' AGL
  • Broken at 2,400' AGL
Conditions
  • Light Rain